createdAt,value
2018-07-16T00:01:37.941Z,19.67
2018-07-16T00:06:41.845Z,19.80
2018-07-16T00:11:45.714Z,19.61
2018-07-16T00:16:49.526Z,19.28
2018-07-16T00:21:53.395Z,19.14
2018-07-16T00:26:57.596Z,19.21
2018-07-16T00:32:01.422Z,19.19
2018-07-16T00:37:05.633Z,19.15
2018-07-16T00:42:09.486Z,19.02
2018-07-16T00:47:13.269Z,19.05
2018-07-16T00:52:17.084Z,18.97
2018-07-16T00:57:21.792Z,18.77
2018-07-16T01:02:25.478Z,18.56
2018-07-16T01:07:29.020Z,18.49
2018-07-16T01:12:33.128Z,18.45
2018-07-16T01:17:36.815Z,18.21
2018-07-16T01:22:40.503Z,18.19
2018-07-16T01:27:44.557Z,18.35
2018-07-16T01:32:48.077Z,18.13
2018-07-16T01:37:51.662Z,17.86
2018-07-16T01:42:55.306Z,18.05
2018-07-16T01:47:58.920Z,17.85
2018-07-16T01:53:02.542Z,17.93
2018-07-16T01:58:06.563Z,17.79
2018-07-16T02:03:10.395Z,17.92
2018-07-16T02:08:14.470Z,17.66
2018-07-16T02:13:18.110Z,17.74
2018-07-16T02:18:21.627Z,17.71
2018-07-16T02:23:25.150Z,17.61
2018-07-16T02:28:28.793Z,17.49
2018-07-16T02:33:32.616Z,17.38
2018-07-16T02:38:36.495Z,17.30
2018-07-16T02:43:40.485Z,17.18
2018-07-16T02:48:44.058Z,16.95
2018-07-16T02:53:47.614Z,16.89
2018-07-16T02:58:51.214Z,16.79
2018-07-16T03:03:54.859Z,16.82
2018-07-16T03:08:58.651Z,16.81
2018-07-16T03:14:02.142Z,16.73
2018-07-16T03:19:05.926Z,16.45
2018-07-16T03:24:09.473Z,16.73
2018-07-16T03:29:12.962Z,16.82
2018-07-16T03:34:16.990Z,16.93
2018-07-16T03:39:21.170Z,16.81
2018-07-16T03:44:24.670Z,16.84
2018-07-16T03:49:28.253Z,16.71
2018-07-16T03:54:31.960Z,16.99
2018-07-16T03:59:35.459Z,17.04
2018-07-16T04:04:39.026Z,17.11
2018-07-16T04:09:42.638Z,16.95
2018-07-16T04:14:46.205Z,17.08
2018-07-16T04:19:49.765Z,16.85
2018-07-16T04:24:53.786Z,17.18
2018-07-16T04:29:57.777Z,17.19
2018-07-16T04:35:02.820Z,17.28
2018-07-16T04:40:08.158Z,17.41
2018-07-16T04:45:11.994Z,17.61
2018-07-16T04:50:15.476Z,17.95
2018-07-16T04:55:19.054Z,18.18
2018-07-16T05:00:23.263Z,18.25
2018-07-16T05:05:26.970Z,18.45
2018-07-16T05:10:30.578Z,18.70
2018-07-16T05:15:34.117Z,18.70
2018-07-16T05:20:37.593Z,18.84
2018-07-16T05:25:41.226Z,18.86
2018-07-16T05:30:45.100Z,18.95
2018-07-16T05:35:48.622Z,19.13
2018-07-16T05:40:52.181Z,19.18
2018-07-16T05:45:55.678Z,19.41
2018-07-16T05:50:59.230Z,19.57
2018-07-16T05:56:02.854Z,19.69
2018-07-16T06:01:06.763Z,19.72
2018-07-16T06:06:10.759Z,19.92
2018-07-16T06:11:15.362Z,20.17
2018-07-16T06:16:19.115Z,20.25
2018-07-16T06:21:22.837Z,20.43
2018-07-16T06:26:27.011Z,20.65
2018-07-16T06:31:30.635Z,20.75
2018-07-16T06:36:34.476Z,20.91
2018-07-16T06:41:38.066Z,21.01
2018-07-16T06:46:41.615Z,21.23
2018-07-16T06:51:45.827Z,21.38
2018-07-16T06:56:49.512Z,21.57
2018-07-16T07:01:53.016Z,21.65
2018-07-16T07:06:56.765Z,21.73
2018-07-16T07:12:00.286Z,21.83
2018-07-16T07:17:03.793Z,22.02
2018-07-16T07:22:08.301Z,22.07
2018-07-16T07:27:11.902Z,22.24
2018-07-16T07:32:15.842Z,22.31
2018-07-16T07:37:19.950Z,22.59
2018-07-16T07:42:24.050Z,22.74
2018-07-16T07:47:28.459Z,22.65
2018-07-16T07:52:32.084Z,22.93
2018-07-16T07:57:35.942Z,22.87
2018-07-16T08:02:39.531Z,22.83
2018-07-16T08:07:43.643Z,23.04
2018-07-16T08:12:47.177Z,23.27
2018-07-16T08:17:50.878Z,23.28
2018-07-16T08:22:54.377Z,23.60
2018-07-16T08:27:58.117Z,23.44
2018-07-16T08:33:01.753Z,23.27
2018-07-16T08:38:05.864Z,23.10
2018-07-16T08:43:10.306Z,23.36
2018-07-16T08:48:13.802Z,23.68
2018-07-16T08:53:17.581Z,23.89
2018-07-16T08:58:21.769Z,23.87
2018-07-16T09:03:25.270Z,24.12
2018-07-16T09:08:28.871Z,24.18
2018-07-16T09:13:32.691Z,24.43
2018-07-16T09:18:36.169Z,24.40
2018-07-16T09:23:40.095Z,24.55
2018-07-16T09:28:43.697Z,24.74
2018-07-16T09:33:48.158Z,24.65
2018-07-16T09:38:52.365Z,24.56
2018-07-16T09:43:56.417Z,24.55
2018-07-16T09:49:00.282Z,24.58
2018-07-16T09:54:03.925Z,24.81
2018-07-16T09:59:08.474Z,24.75
2018-07-16T10:04:13.182Z,24.93
2018-07-16T10:09:16.859Z,25.11
2018-07-16T10:14:21.193Z,25.47
2018-07-16T10:19:25.175Z,25.48
2018-07-16T10:24:29.161Z,25.24
2018-07-16T10:29:34.408Z,25.55
2018-07-16T10:34:38.589Z,25.75
2018-07-16T10:39:42.576Z,25.67
2018-07-16T10:44:47.063Z,25.54
2018-07-16T10:49:51.415Z,25.76
2018-07-16T10:54:55.778Z,25.73
2018-07-16T11:00:05.493Z,25.74
2018-07-16T11:05:09.528Z,25.68
2018-07-16T11:10:13.897Z,26.19
2018-07-16T11:15:18.103Z,26.27
2018-07-16T11:20:21.977Z,26.64
2018-07-16T11:25:25.476Z,26.69
2018-07-16T11:30:28.993Z,26.68
2018-07-16T11:35:33.288Z,27.18
2018-07-16T11:40:41.527Z,27.23
2018-07-16T11:45:46.486Z,27.36
2018-07-16T11:50:51.704Z,26.75
2018-07-16T11:55:55.672Z,26.27
2018-07-16T12:00:59.910Z,26.95
2018-07-16T12:06:08.046Z,27.40
2018-07-16T12:11:12.362Z,26.83
2018-07-16T12:16:16.495Z,26.30
2018-07-16T12:21:20.471Z,26.18
2018-07-16T12:26:24.624Z,27.90
2018-07-16T12:31:29.594Z,28.81
2018-07-16T12:36:33.577Z,29.09
2018-07-16T12:41:38.000Z,27.62
2018-07-16T12:46:43.074Z,26.66
2018-07-16T12:51:47.200Z,26.64
2018-07-16T12:56:51.523Z,27.57
2018-07-16T13:01:55.946Z,28.50
2018-07-16T13:07:00.618Z,28.92
2018-07-16T13:12:05.162Z,28.95
2018-07-16T13:17:09.307Z,28.09
2018-07-16T13:22:13.302Z,27.38
2018-07-16T13:27:16.920Z,27.78
2018-07-16T13:32:20.420Z,28.62
2018-07-16T13:37:24.231Z,28.74
2018-07-16T13:42:27.786Z,28.36
2018-07-16T13:47:31.352Z,28.16
2018-07-16T13:52:35.151Z,27.61
2018-07-16T13:57:39.161Z,28.11
2018-07-16T14:02:42.997Z,28.73
2018-07-16T14:07:47.328Z,28.78
2018-07-16T14:12:51.893Z,28.81
2018-07-16T14:17:55.475Z,28.73
2018-07-16T14:22:59.228Z,28.78
2018-07-16T14:28:03.375Z,29.08
2018-07-16T14:33:08.154Z,29.33
2018-07-16T14:38:12.847Z,29.29
2018-07-16T14:43:18.174Z,29.67
2018-07-16T14:48:23.396Z,29.62
2018-07-16T14:53:28.343Z,29.50
2018-07-16T14:58:33.276Z,29.74
2018-07-16T15:03:37.950Z,30.23
2018-07-16T15:08:42.677Z,30.57
2018-07-16T15:13:47.391Z,31.14
2018-07-16T15:18:51.362Z,31.57
2018-07-16T15:23:55.507Z,30.97
2018-07-16T15:29:00.170Z,30.71
2018-07-16T15:34:04.190Z,30.32
2018-07-16T15:39:08.998Z,29.79
2018-07-16T15:44:12.640Z,29.17
2018-07-16T15:49:17.631Z,28.58
2018-07-16T15:54:21.686Z,28.41
2018-07-16T15:59:26.572Z,30.88
2018-07-16T16:04:30.241Z,33.16
2018-07-16T16:09:34.953Z,34.45
2018-07-16T16:14:38.957Z,36.21
2018-07-16T16:19:42.798Z,36.92
2018-07-16T16:24:47.804Z,37.08
2018-07-16T16:29:51.786Z,35.09
2018-07-16T16:34:56.053Z,36.17
2018-07-16T16:45:10.348Z,32.32
2018-07-16T16:50:15.014Z,30.59
2018-07-16T16:55:20.833Z,30.10
2018-07-16T17:00:24.997Z,30.37
2018-07-16T17:05:29.370Z,29.46
2018-07-16T17:10:33.893Z,30.54
2018-07-16T17:15:38.431Z,31.29
2018-07-16T17:20:42.521Z,31.08
2018-07-16T17:25:47.055Z,30.66
2018-07-16T17:30:51.558Z,30.35
2018-07-16T17:35:56.496Z,30.41
2018-07-16T17:41:00.253Z,31.38
2018-07-16T17:46:04.730Z,31.93
2018-07-16T17:51:08.351Z,32.59
2018-07-16T17:56:12.912Z,33.49
2018-07-16T18:01:18.260Z,32.30
2018-07-16T18:06:22.409Z,31.79
2018-07-16T18:11:27.172Z,31.19
2018-07-16T18:16:32.487Z,30.79
2018-07-16T18:21:37.209Z,30.74
2018-07-16T18:26:41.370Z,30.45
2018-07-16T18:31:46.315Z,29.88
2018-07-16T18:36:50.908Z,29.06
2018-07-16T18:41:55.862Z,28.64
2018-07-16T18:47:01.175Z,27.97
2018-07-16T18:52:05.920Z,27.60
2018-07-16T18:57:09.911Z,27.17
2018-07-16T19:02:15.602Z,26.84
2018-07-16T19:07:22.755Z,26.56
2018-07-16T19:12:27.184Z,26.15
2018-07-16T19:17:31.903Z,25.83
2018-07-16T19:22:36.534Z,25.53
2018-07-16T19:27:41.610Z,25.41
2018-07-16T19:32:46.011Z,25.24
2018-07-16T19:37:50.638Z,25.13
2018-07-16T19:42:55.695Z,24.89
2018-07-16T19:48:00.351Z,24.64
2018-07-16T19:53:04.887Z,24.49
2018-07-16T19:58:08.691Z,24.55
2018-07-16T20:03:12.269Z,24.45
2018-07-16T20:08:16.065Z,24.24
2018-07-16T20:13:19.885Z,24.10
2018-07-16T20:18:23.526Z,24.09
2018-07-16T20:23:27.002Z,23.74
2018-07-16T20:28:30.571Z,23.76
2018-07-16T20:33:34.212Z,23.71
2018-07-16T20:38:39.236Z,23.40
2018-07-16T20:43:42.927Z,23.17
2018-07-16T20:48:46.434Z,23.11
2018-07-16T20:53:50.794Z,22.92
2018-07-16T20:58:54.448Z,22.39
2018-07-16T21:03:58.117Z,22.21
2018-07-16T21:09:02.282Z,22.30
2018-07-16T21:14:05.783Z,22.11
2018-07-16T21:19:09.701Z,21.93
2018-07-16T21:24:13.734Z,21.50
2018-07-16T21:29:18.255Z,21.46
2018-07-16T21:34:22.031Z,21.87
2018-07-16T21:39:25.885Z,21.95
2018-07-16T21:44:29.550Z,21.61
2018-07-16T21:49:33.080Z,21.14
2018-07-16T21:54:36.717Z,21.47
2018-07-16T21:59:40.362Z,21.38
2018-07-16T22:04:44.369Z,21.30
2018-07-16T22:09:48.003Z,21.32
2018-07-16T22:14:51.554Z,21.10
2018-07-16T22:19:55.040Z,21.16
2018-07-16T22:24:59.021Z,21.08
2018-07-16T22:30:04.106Z,20.75
2018-07-16T22:35:07.870Z,20.77
2018-07-16T22:40:11.407Z,20.82
2018-07-16T22:45:15.114Z,20.54
2018-07-16T22:50:19.573Z,20.36
2018-07-16T22:55:23.133Z,20.47
2018-07-16T23:00:26.703Z,20.36
2018-07-16T23:05:30.222Z,20.19
2018-07-16T23:10:33.744Z,20.15
2018-07-16T23:15:37.375Z,20.23
2018-07-16T23:20:40.947Z,20.16
2018-07-16T23:25:44.908Z,20.16
2018-07-16T23:30:48.639Z,20.22
2018-07-16T23:35:52.726Z,19.80
2018-07-16T23:40:56.478Z,20.13
2018-07-16T23:46:00.019Z,19.93
2018-07-16T23:51:03.850Z,19.51
2018-07-16T23:56:07.527Z,19.43
